Météo Nord-Pas-de-Calais   La météo au plus près de chez vous

Station météorologique

Observations météo à Lanveoc (29120)

29120001 81 m Dernier relevé à 08:06
18.2°C
Humidité 63 % Vent 11.9 km/h 1020.3 hPa

Journée consultée

Dimanche 6 Septembre 2026

Synthèse de la journée

Périodes de référence en UTC

Température maximale

18.2°C

à 08:06

06h 06h

Température minimale

16°C

à 07:00

18h 18h

Rafale maximale

26 km/h

à 07:42

00h 00h

Précipitations

0 mm

Cumul quotidien

06h 06h

Graphiques de la journée

Heure locale Réduire

Données détaillées

Relevés météo

Pas de 6 minutes Afficher les relevés infra-horaires
Relevés météo détaillés à Lanveoc pour le Dimanche 6 Septembre 2026
Heure Température °C Point de rosée °C Humidité % Vent moyen (raf.), km/h Précipitations mm Visibilité m Pression hPa Nébulosité Octas
08:06 18.2 °C 10.8 °C 62 % 15 km/h (23 km/h) 0 mm0 mm 59100 m 1019.8 hPa
08:00 17.7 °C 10.8 °C 64 % 14 km/h (23 km/h) 0 mm0.4 mm 59060 m 1019.8 hPa
07:54 17.7 °C 11 °C 65 % 16 km/h (23 km/h) 0 mm0 mm 16750 m 1019.6 hPa
07:48 18.2 °C 11 °C 63 % 19 km/h (26 km/h) 0.4 mm0 mm 15630 m 1019.7 hPa
07:42 18.6 °C 9.6 °C 56 % 19 km/h (26 km/h) 0 mm0 mm 59210 m 1019.8 hPa
07:36 18 °C 9.3 °C 57 % 18 km/h (24 km/h) 0 mm0 mm 59920 m 1019.9 hPa
07:30 17.7 °C 9.6 °C 59 % 15 km/h (23 km/h) 0 mm0 mm 60000 m 1020 hPa
07:24 17.3 °C 9.7 °C 61 % 13 km/h (18 km/h) 0 mm0 mm 59680 m 1020.3 hPa
07:18 17.3 °C 9.7 °C 61 % 12 km/h (17 km/h) 0 mm0 mm 59680 m 1020.4 hPa
07:12 17.2 °C 9.9 °C 62 % 12 km/h (17 km/h) 0 mm0 mm 60000 m 1020.3 hPa
07:06 16.8 °C 9.7 °C 63 % 12 km/h (17 km/h) 0 mm0 mm 58960 m 1020.3 hPa
07:00 16.5 °C 9.9 °C 65 % 10 km/h (16 km/h) 0 mm0 mm 60000 m 1020.4 hPa 6 Octas
06:54 16.2 °C 10.1 °C 67 % 11 km/h (16 km/h) 0 mm0 mm 60000 m 1020.5 hPa
06:48 16.1 °C 10.2 °C 68 % 11 km/h (16 km/h) 0 mm0 mm 57370 m 1020.5 hPa
06:42 16.1 °C 10.2 °C 68 % 10 km/h (15 km/h) 0 mm0 mm 55110 m 1020.6 hPa
06:36 16.1 °C 10.6 °C 70 % 12 km/h (17 km/h) 0 mm0 mm 55520 m 1020.7 hPa
06:30 16.2 °C 10.7 °C 70 % 13 km/h (19 km/h) 0 mm0 mm 56620 m 1020.8 hPa
06:24 16.7 °C 10.5 °C 67 % 15 km/h (20 km/h) 0 mm0 mm 58480 m 1020.7 hPa
06:18 16.7 °C 10.5 °C 67 % 14 km/h (20 km/h) 0 mm0 mm 59840 m 1020.7 hPa
06:12 16.7 °C 10.5 °C 67 % 14 km/h (25 km/h) 0 mm0 mm 58910 m 1020.5 hPa
06:06 16.6 °C 10.7 °C 68 % 14 km/h (25 km/h) 0 mm0 mm 59630 m 1020.5 hPa
06:00 16.5 °C 10.8 °C 69 % 14 km/h (21 km/h) 0 mm0 mm 58030 m 1020.5 hPa
05:54 16.4 °C 10.9 °C 70 % 14 km/h (21 km/h) 0 mm0 mm 58290 m 1020.5 hPa
05:48 16.4 °C 10.9 °C 70 % 15 km/h (21 km/h) 0 mm0 mm 58530 m 1020.5 hPa
05:42 16.4 °C 10.9 °C 70 % 15 km/h (21 km/h) 0 mm0 mm 58200 m 1020.7 hPa
05:36 16.4 °C 11.1 °C 71 % 14 km/h (21 km/h) 0 mm0 mm 58210 m 1020.7 hPa
05:30 16.6 °C 11.1 °C 70 % 12 km/h (21 km/h) 0 mm0 mm 56990 m 1020.8 hPa
05:24 16.8 °C 10.6 °C 67 % 10 km/h (16 km/h) 0 mm0 mm 53540 m 1021 hPa
05:18 16.7 °C 10.5 °C 67 % 11 km/h (17 km/h) 0 mm0 mm 54190 m 1021.1 hPa
05:12 16.6 °C 10.4 °C 67 % 13 km/h (17 km/h) 0 mm0 mm 55460 m 1021.2 hPa
05:06 16.5 °C 10.6 °C 68 % 13 km/h (17 km/h) 0 mm0 mm 54940 m 1021.3 hPa
05:00 16.4 °C 10.7 °C 69 % 14 km/h (18 km/h) 0 mm0 mm 54420 m 1021.3 hPa
04:54 16.4 °C 11.1 °C 71 % 15 km/h (20 km/h) 0 mm0 mm 55110 m 1021.4 hPa
04:48 16.3 °C 11 °C 71 % 15 km/h (20 km/h) 0 mm0 mm 56270 m 1021.5 hPa
04:42 16.5 °C 11.4 °C 72 % 13 km/h (20 km/h) 0 mm0 mm 55260 m 1021.5 hPa
04:36 16.5 °C 11.2 °C 71 % 11 km/h (17 km/h) 0 mm0 mm 55380 m 1021.4 hPa
04:30 16.5 °C 11.2 °C 71 % 11 km/h (16 km/h) 0 mm0 mm 53860 m 1021.5 hPa
04:24 16.3 °C 11.4 °C 73 % 11 km/h (17 km/h) 0 mm0 mm 54340 m 1021.6 hPa
04:18 16.3 °C 11.7 °C 74 % 12 km/h (17 km/h) 0 mm0 mm 54710 m 1021.8 hPa
04:12 16.3 °C 11.7 °C 74 % 12 km/h (17 km/h) 0 mm0 mm 53830 m 1021.8 hPa
04:06 16.3 °C 11.7 °C 74 % 12 km/h (18 km/h) 0 mm0 mm 52570 m 1021.9 hPa
04:00 16.3 °C 12.1 °C 76 % 12 km/h (16 km/h) 0 mm0 mm 53760 m 1022 hPa
03:54 16.3 °C 12.1 °C 76 % 10 km/h (16 km/h) 0 mm0 mm 54880 m 1022.1 hPa
03:48 16.3 °C 12.3 °C 77 % 10 km/h (15 km/h) 0 mm0 mm 52720 m 1022.2 hPa
03:42 16.3 °C 12.3 °C 77 % 9 km/h (14 km/h) 0 mm0 mm 49180 m 1022.2 hPa
03:36 16.2 °C 12 °C 76 % 9 km/h (15 km/h) 0 mm0 mm 46140 m 1022.3 hPa
03:30 16.3 °C 12.3 °C 77 % 9 km/h (15 km/h) 0 mm0 mm 47740 m 1022.5 hPa
03:24 16.3 °C 12.3 °C 77 % 10 km/h (14 km/h) 0 mm0 mm 48350 m 1022.6 hPa
03:18 16.3 °C 12.3 °C 77 % 10 km/h (18 km/h) 0 mm0 mm 49110 m 1022.6 hPa
03:12 16.3 °C 12.3 °C 77 % 11 km/h (18 km/h) 0 mm0 mm 46760 m 1022.7 hPa
03:06 16.2 °C 12.2 °C 77 % 12 km/h (18 km/h) 0 mm0 mm 50550 m 1022.7 hPa
03:00 16.2 °C 12.2 °C 77 % 13 km/h (18 km/h) 0 mm0 mm 48380 m 1022.9 hPa
02:54 16.2 °C 12.4 °C 78 % 14 km/h (18 km/h) 0 mm0 mm 48300 m 1023 hPa
02:48 16.2 °C 12.4 °C 78 % 15 km/h (19 km/h) 0 mm0 mm 49660 m 1023 hPa
02:42 16.3 °C 12.6 °C 79 % 16 km/h (22 km/h) 0 mm0 mm 48510 m 1023.1 hPa
02:36 16.3 °C 12.6 °C 79 % 16 km/h (22 km/h) 0 mm0 mm 47240 m 1023 hPa
02:30 16.4 °C 12.7 °C 79 % 15 km/h (22 km/h) 0 mm0 mm 42920 m 1023.1 hPa
02:24 16.4 °C 12.7 °C 79 % 13 km/h (20 km/h) 0 mm0 mm 43460 m 1023.3 hPa
02:18 16.5 °C 12.6 °C 78 % 13 km/h (19 km/h) 0 mm0 mm 45210 m 1023.3 hPa
02:12 16.5 °C 12.6 °C 78 % 14 km/h (19 km/h) 0 mm0 mm 44170 m 1023.3 hPa
02:06 16.6 °C 12.5 °C 77 % 15 km/h (22 km/h) 0 mm0 mm 46670 m 1023.5 hPa
02:00 16.8 °C 12.5 °C 76 % 16 km/h (22 km/h) 0 mm0 mm 46130 m 1023.5 hPa
01:54 17 °C 12.7 °C 76 % 15 km/h (23 km/h) 0 mm0 mm 50800 m 1023.5 hPa
01:48 17 °C 12.7 °C 76 % 14 km/h (23 km/h) 0 mm0 mm 48160 m 1023.5 hPa
01:42 16.8 °C 12.9 °C 78 % 13 km/h (18 km/h) 0 mm0 mm 48940 m 1023.5 hPa
01:36 16.9 °C 13 °C 78 % 12 km/h (18 km/h) 0 mm0 mm 50170 m 1023.6 hPa
01:30 16.8 °C 12.9 °C 78 % 11 km/h (17 km/h) 0 mm0 mm 49010 m 1023.6 hPa
01:24 16.7 °C 13 °C 79 % 12 km/h (18 km/h) 0 mm0 mm 48540 m 1023.6 hPa
01:18 16.9 °C 13 °C 78 % 12 km/h (18 km/h) 0 mm0 mm 48450 m 1023.6 hPa
01:12 17 °C 12.9 °C 77 % 10 km/h (18 km/h) 0 mm0 mm 48990 m 1023.7 hPa
01:06 17.1 °C 13 °C 77 % 10 km/h (17 km/h) 0 mm0 mm 49070 m 1023.7 hPa
01:00 17.1 °C 13 °C 77 % 11 km/h (17 km/h) 0 mm0 mm 47910 m 1023.8 hPa
00:54 17.3 °C 13 °C 76 % 11 km/h (16 km/h) 0 mm0 mm 49070 m 1023.9 hPa
00:48 17.4 °C 13.1 °C 76 % 12 km/h (18 km/h) 0 mm0 mm 51010 m 1023.9 hPa
00:42 17.4 °C 13.1 °C 76 % 13 km/h (21 km/h) 0 mm0 mm 48860 m 1023.9 hPa
00:36 17.4 °C 13.5 °C 78 % 13 km/h (21 km/h) 0 mm0 mm 48000 m 1023.9 hPa
00:30 17.4 °C 13.7 °C 79 % 12 km/h (18 km/h) 0 mm0 mm 44640 m 1023.8 hPa
00:24 17.3 °C 13.8 °C 80 % 13 km/h (18 km/h) 0 mm0 mm 43610 m 1023.8 hPa
00:18 17.4 °C 14.3 °C 82 % 13 km/h (18 km/h) 0 mm0 mm 9100 m 1023.9 hPa
00:12 17.5 °C 14.4 °C 82 % 12 km/h (17 km/h) 0 mm0 mm 3070 m 1023.9 hPa
00:06 17.7 °C 14.2 °C 80 % 13 km/h (18 km/h) 0 mm0 mm 2340 m 1023.8 hPa
00:00 17.7 °C 13.8 °C 78 % 12 km/h (17 km/h) 0 mm0 mm 2510 m 1023.9 hPa

Données via Météo-France

Relevés météo à Lanveoc

Cette page rassemble les observations de la station de Lanveoc : température, humidité, vent, précipitations et pression atmosphérique. Les graphiques facilitent le suivi de la journée, tandis que le tableau donne accès aux mesures horaires et infra-horaires disponibles.

Pour replacer ces mesures dans leur contexte, consultez la climatologie de Lanveoc ainsi que ses normales et records. Retrouvez aussi la carte des observations météo en temps réel.